createdAt,value
2018-01-21T00:01:52.011Z,14.60
2018-01-21T00:04:19.615Z,12.50
2018-01-21T00:06:47.211Z,12.10
2018-01-21T00:09:14.812Z,12.15
2018-01-21T00:11:42.401Z,12.73
2018-01-21T00:14:09.995Z,12.70
2018-01-21T00:16:37.585Z,12.48
2018-01-21T00:19:05.268Z,10.93
2018-01-21T00:21:32.873Z,12.57
2018-01-21T00:24:00.604Z,12.75
2018-01-21T00:26:28.212Z,10.80
2018-01-21T00:28:55.842Z,11.05
2018-01-21T00:31:23.455Z,11.32
2018-01-21T00:33:51.098Z,11.00
2018-01-21T00:36:18.772Z,10.82
2018-01-21T00:38:46.378Z,11.27
2018-01-21T00:41:13.999Z,13.98
2018-01-21T00:43:41.606Z,12.35
2018-01-21T00:46:09.224Z,12.07
2018-01-21T00:48:36.844Z,12.18
2018-01-21T00:51:04.435Z,12.55
2018-01-21T00:53:32.026Z,12.55
2018-01-21T00:55:59.615Z,11.30
2018-01-21T00:58:27.218Z,12.10
2018-01-21T01:00:55.575Z,11.02
2018-01-21T01:03:23.172Z,12.40
2018-01-21T01:05:51.531Z,13.05
2018-01-21T01:08:19.127Z,12.05
2018-01-21T01:10:46.734Z,10.82
2018-01-21T01:13:14.329Z,12.77
2018-01-21T01:15:41.971Z,12.10
2018-01-21T01:18:09.563Z,12.82
2018-01-21T01:20:37.154Z,12.20
2018-01-21T01:23:04.752Z,12.07
2018-01-21T01:25:32.347Z,11.35
2018-01-21T01:27:59.939Z,11.63
2018-01-21T01:30:27.528Z,13.07
2018-01-21T01:32:55.128Z,11.27
2018-01-21T01:35:22.724Z,11.60
2018-01-21T01:37:53.436Z,10.88
2018-01-21T01:40:21.039Z,10.65
2018-01-21T01:42:48.630Z,11.20
2018-01-21T01:45:16.220Z,10.85
2018-01-21T01:47:43.807Z,11.23
2018-01-21T01:50:11.399Z,11.77
2018-01-21T01:52:38.998Z,12.48
2018-01-21T01:55:06.642Z,11.88
2018-01-21T01:57:34.255Z,11.60
2018-01-21T02:00:01.896Z,10.68
2018-01-21T02:02:29.506Z,10.05
2018-01-21T02:04:57.884Z,10.10
2018-01-21T02:07:25.490Z,10.18
2018-01-21T02:09:53.098Z,9.52
2018-01-21T02:12:20.679Z,9.13
2018-01-21T02:14:48.254Z,9.43
2018-01-21T02:17:16.606Z,10.13
2018-01-21T02:19:44.210Z,9.23
2018-01-21T02:22:11.834Z,11.12
2018-01-21T02:24:39.483Z,10.25
2018-01-21T02:27:08.079Z,12.00
2018-01-21T02:29:35.709Z,9.95
2018-01-21T02:32:03.287Z,10.48
2018-01-21T02:34:30.879Z,11.48
2018-01-21T02:36:58.547Z,11.93
2018-01-21T02:39:26.152Z,13.00
2018-01-21T02:41:58.620Z,14.80
2018-01-21T02:44:26.231Z,13.02
2018-01-21T02:46:53.847Z,12.90
2018-01-21T02:49:28.740Z,14.52
2018-01-21T02:51:56.342Z,13.60
2018-01-21T02:54:23.975Z,14.45
2018-01-21T02:56:51.582Z,12.80
2018-01-21T02:59:19.203Z,14.00
2018-01-21T03:01:46.832Z,13.95
2018-01-21T03:04:14.450Z,13.45
2018-01-21T03:06:42.100Z,13.00
2018-01-21T03:09:09.704Z,13.60
2018-01-21T03:11:38.082Z,13.50
2018-01-21T03:14:05.691Z,14.55
2018-01-21T03:16:33.306Z,12.90
2018-01-21T03:19:00.936Z,13.27
2018-01-21T03:21:28.585Z,13.30
2018-01-21T03:23:56.234Z,13.88
2018-01-21T03:26:23.890Z,12.52
2018-01-21T03:28:51.509Z,12.70
2018-01-21T03:31:19.131Z,12.70
2018-01-21T03:33:46.752Z,12.50
2018-01-21T03:36:14.376Z,11.43
2018-01-21T03:38:41.995Z,13.65
2018-01-21T03:41:09.614Z,12.45
2018-01-21T03:43:37.267Z,12.60
2018-01-21T03:46:04.916Z,12.57
2018-01-21T03:48:33.303Z,12.77
2018-01-21T03:51:00.920Z,12.75
2018-01-21T03:53:28.575Z,11.85
2018-01-21T03:55:56.174Z,13.07
2018-01-21T03:58:23.782Z,11.75
2018-01-21T04:00:51.434Z,12.57
2018-01-21T04:03:20.010Z,11.80
2018-01-21T04:05:47.623Z,11.52
2018-01-21T04:08:15.234Z,11.75
2018-01-21T04:10:43.612Z,11.10
2018-01-21T04:13:12.064Z,12.00
2018-01-21T04:15:39.716Z,11.07
2018-01-21T04:18:07.336Z,12.27
2018-01-21T04:20:34.946Z,11.63
2018-01-21T04:23:02.570Z,12.07
2018-01-21T04:25:31.964Z,9.95
2018-01-21T04:27:59.581Z,11.60
2018-01-21T04:30:27.191Z,12.30
2018-01-21T04:32:54.807Z,12.05
2018-01-21T04:35:22.406Z,10.45
2018-01-21T04:37:49.998Z,11.52
2018-01-21T04:40:18.359Z,11.27
2018-01-21T04:42:45.952Z,11.80
2018-01-21T04:45:14.314Z,10.57
2018-01-21T04:47:41.912Z,10.10
2018-01-21T04:50:09.506Z,10.35
2018-01-21T04:52:37.099Z,11.25
2018-01-21T04:55:04.696Z,10.32
2018-01-21T04:57:33.070Z,10.90
2018-01-21T05:00:00.668Z,11.43
2018-01-21T05:02:28.260Z,11.95
2018-01-21T05:04:55.851Z,11.02
2018-01-21T05:07:23.450Z,11.07
2018-01-21T05:09:51.042Z,11.25
2018-01-21T05:12:18.633Z,10.60
2018-01-21T05:14:46.223Z,10.88
2018-01-21T05:17:13.814Z,11.00
2018-01-21T05:19:41.413Z,9.55
2018-01-21T05:22:09.014Z,9.65
2018-01-21T05:24:36.613Z,10.05
2018-01-21T05:27:04.222Z,10.00
2018-01-21T05:29:31.807Z,9.70
2018-01-21T05:31:59.416Z,10.80
2018-01-21T05:34:27.006Z,11.12
2018-01-21T05:36:54.606Z,11.52
2018-01-21T05:39:22.194Z,11.30
2018-01-21T05:41:49.791Z,12.00
2018-01-21T05:44:17.384Z,13.60
2018-01-21T05:46:44.978Z,16.20
2018-01-21T05:49:13.338Z,14.40
2018-01-21T05:51:40.950Z,14.38
2018-01-21T05:54:08.583Z,16.87
2018-01-21T05:56:36.948Z,19.08
2018-01-21T05:59:04.540Z,15.88
2018-01-21T06:01:32.948Z,14.32
2018-01-21T06:04:00.544Z,12.73
2018-01-21T06:06:28.138Z,13.55
2018-01-21T06:08:55.739Z,13.30
2018-01-21T06:11:23.382Z,16.55
2018-01-21T06:13:50.977Z,12.93
2018-01-21T06:16:18.569Z,17.10
2018-01-21T06:18:46.178Z,16.17
2018-01-21T06:21:14.576Z,17.77
2018-01-21T06:23:42.166Z,19.02
2018-01-21T06:26:09.768Z,18.83
2018-01-21T06:28:37.431Z,19.40
2018-01-21T06:31:05.025Z,19.55
2018-01-21T06:33:32.618Z,18.77
2018-01-21T06:36:00.214Z,28.65
2018-01-21T06:38:27.807Z,26.77
2018-01-21T06:40:56.163Z,21.00
2018-01-21T06:43:23.762Z,23.48
2018-01-21T06:45:52.122Z,37.45
2018-01-21T06:48:19.723Z,54.10
2018-01-21T06:50:47.319Z,46.88
2018-01-21T06:53:14.915Z,30.45
2018-01-21T06:55:42.511Z,29.37
2018-01-21T06:58:10.119Z,31.95
2018-01-21T07:00:37.735Z,25.52
2018-01-21T07:03:06.107Z,26.27
2018-01-21T07:05:33.699Z,27.40
2018-01-21T07:08:01.302Z,26.80
2018-01-21T07:10:28.919Z,27.17
2018-01-21T07:12:56.512Z,25.00
2018-01-21T07:15:24.421Z,20.20
2018-01-21T07:17:52.068Z,19.15
2018-01-21T07:20:19.682Z,17.20
2018-01-21T07:22:48.095Z,17.27
2018-01-21T07:25:15.715Z,16.98
2018-01-21T07:27:43.368Z,17.62
2018-01-21T07:30:10.992Z,17.35
2018-01-21T07:32:38.606Z,17.42
2018-01-21T07:35:06.212Z,17.98
2018-01-21T07:37:33.835Z,21.50
2018-01-21T07:40:01.447Z,20.80
2018-01-21T07:42:33.140Z,20.83
2018-01-21T07:45:00.767Z,20.62
2018-01-21T07:47:28.395Z,21.27
2018-01-21T07:49:56.022Z,23.05
2018-01-21T07:52:23.638Z,25.90
2018-01-21T07:54:51.245Z,25.30
2018-01-21T07:57:18.865Z,25.58
2018-01-21T07:59:47.243Z,26.75
2018-01-21T08:02:15.607Z,29.10
2018-01-21T08:04:43.219Z,28.85
2018-01-21T08:07:10.819Z,28.50
2018-01-21T08:09:38.439Z,29.35
2018-01-21T08:12:06.058Z,30.10
2018-01-21T08:14:33.657Z,31.50
2018-01-21T08:17:02.040Z,30.20
2018-01-21T08:19:29.669Z,32.15
2018-01-21T08:21:57.314Z,30.05
2018-01-21T08:24:24.943Z,30.37
2018-01-21T08:26:52.556Z,29.17
2018-01-21T08:29:20.179Z,29.48
2018-01-21T08:31:47.807Z,30.35
2018-01-21T08:34:20.913Z,31.25
2018-01-21T08:36:54.092Z,32.50
2018-01-21T08:39:27.269Z,30.88
2018-01-21T08:41:58.586Z,31.42
2018-01-21T08:44:26.202Z,29.58
2018-01-21T08:46:53.836Z,31.58
2018-01-21T08:49:21.459Z,30.83
2018-01-21T08:51:49.111Z,29.55
2018-01-21T08:54:17.557Z,29.95
2018-01-21T08:56:45.142Z,30.05
2018-01-21T08:59:12.734Z,30.70
2018-01-21T09:01:41.100Z,28.73
2018-01-21T09:04:08.692Z,29.65
2018-01-21T09:06:37.065Z,32.13
2018-01-21T09:09:05.487Z,31.40
2018-01-21T09:11:33.078Z,32.13
2018-01-21T09:14:00.679Z,33.38
2018-01-21T09:16:29.046Z,33.92
2018-01-21T09:18:56.649Z,33.72
2018-01-21T09:21:24.243Z,32.13
2018-01-21T09:23:51.836Z,33.20
2018-01-21T09:26:19.476Z,35.22
2018-01-21T09:28:47.118Z,35.13
2018-01-21T09:31:14.719Z,33.90
2018-01-21T09:33:42.421Z,31.17
2018-01-21T09:36:10.852Z,34.35
2018-01-21T09:38:38.458Z,34.70
2018-01-21T09:41:06.128Z,34.30
2018-01-21T09:43:34.919Z,34.80
2018-01-21T09:46:02.555Z,33.30
2018-01-21T09:48:30.175Z,33.42
2018-01-21T09:50:57.819Z,31.50
2018-01-21T09:53:26.202Z,31.67
2018-01-21T09:55:54.644Z,32.20
2018-01-21T09:58:22.332Z,31.15
2018-01-21T10:00:50.028Z,30.60
2018-01-21T10:03:17.704Z,32.50
2018-01-21T10:05:45.335Z,31.17
2018-01-21T10:08:13.002Z,31.70
2018-01-21T10:10:40.700Z,29.70
2018-01-21T10:13:09.115Z,29.85
2018-01-21T10:15:36.810Z,29.50
2018-01-21T10:18:04.480Z,31.05
2018-01-21T10:20:33.767Z,30.52
2018-01-21T10:23:01.358Z,29.98
2018-01-21T10:25:28.943Z,30.35
2018-01-21T10:27:57.294Z,29.50
2018-01-21T10:30:25.045Z,26.70
2018-01-21T10:32:52.830Z,28.38
2018-01-21T10:35:20.555Z,26.15
2018-01-21T10:37:48.260Z,28.85
2018-01-21T10:40:15.884Z,24.63
2018-01-21T10:42:43.516Z,27.73
2018-01-21T10:45:11.123Z,24.27
2018-01-21T10:47:38.808Z,20.27
2018-01-21T10:50:06.425Z,21.15
2018-01-21T10:52:34.883Z,23.58
2018-01-21T10:55:02.564Z,25.48
2018-01-21T10:57:30.224Z,27.13
2018-01-21T10:59:57.961Z,26.25
2018-01-21T11:02:25.572Z,25.90
2018-01-21T11:04:53.292Z,25.65
2018-01-21T11:07:22.864Z,26.73
2018-01-21T11:09:50.556Z,28.95
2018-01-21T11:12:19.225Z,28.65
2018-01-21T11:14:46.910Z,28.95
2018-01-21T11:17:14.530Z,27.17
2018-01-21T11:19:54.331Z,32.58
2018-01-21T11:22:23.866Z,33.28
2018-01-21T11:24:52.454Z,30.67
2018-01-21T11:27:25.047Z,31.20
2018-01-21T11:29:52.641Z,29.02
2018-01-21T11:32:21.192Z,33.53
2018-01-21T11:34:54.474Z,31.67
2018-01-21T11:37:23.067Z,33.42
2018-01-21T11:39:51.660Z,31.42
2018-01-21T11:42:23.448Z,54.65
2018-01-21T11:44:51.806Z,44.97
2018-01-21T11:47:19.406Z,42.62
2018-01-21T11:49:47.007Z,37.17
2018-01-21T11:52:16.544Z,43.00
2018-01-21T11:54:44.138Z,34.00
2018-01-21T11:57:13.506Z,40.55
2018-01-21T11:59:41.246Z,36.50
2018-01-21T12:02:08.881Z,27.70
2018-01-21T12:04:36.518Z,27.27
2018-01-21T12:07:04.167Z,27.65
2018-01-21T12:09:45.477Z,30.67
2018-01-21T12:12:13.157Z,27.10
2018-01-21T12:17:50.179Z,141.73
2018-01-21T12:20:17.878Z,70.85
2018-01-21T12:22:45.499Z,39.15
2018-01-21T12:25:13.166Z,29.45
2018-01-21T12:27:42.759Z,24.05
2018-01-21T12:30:14.915Z,24.87
2018-01-21T12:32:43.312Z,24.80
2018-01-21T12:35:10.972Z,21.02
2018-01-21T12:37:39.636Z,51.58
2018-01-21T12:40:18.979Z,34.65
2018-01-21T12:42:59.483Z,19.48
2018-01-21T12:45:27.151Z,27.95
2018-01-21T12:47:54.763Z,21.08
2018-01-21T12:50:24.176Z,48.95
2018-01-21T12:52:53.664Z,18.85
2018-01-21T12:55:22.291Z,26.98
2018-01-21T12:57:50.903Z,17.70
2018-01-21T13:00:18.555Z,18.20
2018-01-21T13:02:47.195Z,14.85
2018-01-21T13:05:14.802Z,16.87
2018-01-21T13:07:42.404Z,16.15
2018-01-21T13:10:10.023Z,12.55
2018-01-21T13:12:37.637Z,15.75
2018-01-21T13:15:05.251Z,18.40
2018-01-21T13:17:32.876Z,12.77
2018-01-21T13:20:00.489Z,13.50
2018-01-21T13:22:28.090Z,12.95
2018-01-21T13:24:55.692Z,11.85
2018-01-21T13:27:23.347Z,12.63
2018-01-21T13:29:50.996Z,9.02
2018-01-21T13:32:19.674Z,10.48
2018-01-21T13:35:19.805Z,13.68
2018-01-21T13:37:47.444Z,14.95
2018-01-21T13:40:17.963Z,16.83
2018-01-21T13:42:53.153Z,20.10
2018-01-21T13:45:21.163Z,18.65
2018-01-21T13:47:48.808Z,21.02
2018-01-21T13:50:16.457Z,21.70
2018-01-21T13:52:45.456Z,20.33
2018-01-21T13:55:13.066Z,20.15
2018-01-21T13:57:40.758Z,23.25
2018-01-21T14:00:11.227Z,21.90
2018-01-21T14:11:30.830Z,46.08
2018-01-21T14:16:31.518Z,46.05
2018-01-21T14:18:59.176Z,41.20
2018-01-21T14:21:30.807Z,27.95
2018-01-21T14:23:59.373Z,25.27
2018-01-21T14:26:31.587Z,23.23
2018-01-21T14:29:08.030Z,27.92
2018-01-21T14:31:41.728Z,26.73
2018-01-21T14:43:12.940Z,24.00
2018-01-21T14:48:34.203Z,23.77
2018-01-21T14:51:02.628Z,32.28
2018-01-21T14:53:30.328Z,26.83
2018-01-21T15:01:54.428Z,26.08
2018-01-21T15:04:22.496Z,24.87
2018-01-21T15:06:50.480Z,24.98
2018-01-21T15:12:13.266Z,24.98
2018-01-21T15:14:40.943Z,23.83
2018-01-21T15:17:09.381Z,25.48
2018-01-21T15:22:50.413Z,25.05
2018-01-21T15:25:18.041Z,22.65
2018-01-21T15:27:45.667Z,23.45
2018-01-21T15:30:13.333Z,22.92
2018-01-21T15:32:41.020Z,22.37
2018-01-21T15:35:08.644Z,27.90
2018-01-21T15:37:36.323Z,23.10
2018-01-21T15:42:39.611Z,19.50
2018-01-21T15:45:07.222Z,25.37
2018-01-21T15:47:34.927Z,26.45
2018-01-21T15:50:03.404Z,20.00
2018-01-21T15:52:32.643Z,21.35
2018-01-21T15:55:00.267Z,19.83
2018-01-21T15:57:27.948Z,20.73
2018-01-21T15:59:57.048Z,20.40
2018-01-21T16:02:24.681Z,23.10
2018-01-21T16:04:52.546Z,26.30
2018-01-21T16:07:21.016Z,26.92
2018-01-21T16:09:51.300Z,32.40
2018-01-21T16:12:28.885Z,26.87
2018-01-21T16:14:57.272Z,30.62
2018-01-21T16:17:25.685Z,22.23
2018-01-21T16:25:49.881Z,18.85
2018-01-21T16:28:17.541Z,20.48
2018-01-21T16:30:54.871Z,19.55
2018-01-21T16:33:42.039Z,16.70
2018-01-21T16:36:30.813Z,17.23
2018-01-21T16:41:56.903Z,20.70
2018-01-21T16:44:27.247Z,19.05
2018-01-21T16:47:00.799Z,18.87
2018-01-21T16:49:28.449Z,18.90
2018-01-21T16:52:02.041Z,32.35
2018-01-21T16:54:30.743Z,28.52
2018-01-21T16:56:58.440Z,34.70
2018-01-21T16:59:26.091Z,35.95
2018-01-21T17:02:13.009Z,27.20
2018-01-21T17:04:59.786Z,43.10
2018-01-21T17:07:43.893Z,32.05
2018-01-21T17:10:12.553Z,29.83
2018-01-21T17:12:53.416Z,30.98
2018-01-21T17:15:38.587Z,25.52
2018-01-21T17:18:29.768Z,24.05
2018-01-21T17:21:03.002Z,36.03
2018-01-21T17:23:31.430Z,28.23
2018-01-21T17:26:07.239Z,24.63
2018-01-21T17:28:36.923Z,26.40
2018-01-21T17:31:21.100Z,23.77
2018-01-21T17:33:53.547Z,22.83
2018-01-21T17:36:22.000Z,21.90
2018-01-21T17:38:56.077Z,34.30
2018-01-21T17:41:23.671Z,33.78
2018-01-21T17:43:51.276Z,42.47
2018-01-21T17:46:19.852Z,21.65
2018-01-21T17:48:49.979Z,25.58
2018-01-21T17:51:17.579Z,22.87
2018-01-21T17:53:48.587Z,22.60
2018-01-21T17:56:16.195Z,23.55
2018-01-21T17:58:43.806Z,24.60
2018-01-21T18:01:11.471Z,24.52
2018-01-21T18:03:39.059Z,22.67
2018-01-21T18:06:06.656Z,21.17
2018-01-21T18:08:34.267Z,23.17
2018-01-21T18:11:01.859Z,22.17
2018-01-21T18:13:30.260Z,23.42
2018-01-21T18:15:57.859Z,25.95
2018-01-21T18:18:25.447Z,24.85
2018-01-21T18:20:53.226Z,24.95
2018-01-21T18:23:20.970Z,24.45
2018-01-21T18:25:48.701Z,23.55
2018-01-21T18:31:15.651Z,25.10
2018-01-21T18:33:54.245Z,26.08
2018-01-21T18:36:22.676Z,28.00
2018-01-21T18:38:50.397Z,25.83
2018-01-21T18:41:18.962Z,25.70
2018-01-21T18:43:47.543Z,24.37
2018-01-21T18:46:16.051Z,25.15
2018-01-21T18:48:44.831Z,25.80
2018-01-21T19:08:46.468Z,25.17
2018-01-21T19:14:24.782Z,25.20
2018-01-21T19:16:52.495Z,24.12
2018-01-21T19:19:20.234Z,24.42
2018-01-21T19:24:50.071Z,25.33
2018-01-21T19:27:17.832Z,24.77
2018-01-21T19:29:46.512Z,24.12
2018-01-21T19:32:14.890Z,25.35
2018-01-21T19:34:42.631Z,25.30
2018-01-21T19:37:22.612Z,26.08
2018-01-21T19:40:11.108Z,24.70
2018-01-21T19:42:58.698Z,22.45
2018-01-21T19:54:29.502Z,17.77
2018-01-21T19:57:20.442Z,20.17
2018-01-21T19:59:51.263Z,20.15
2018-01-21T20:02:20.038Z,20.90
2018-01-21T20:04:57.717Z,21.85
2018-01-21T20:07:35.233Z,23.75
2018-01-21T20:10:28.271Z,23.62
2018-01-21T20:13:11.820Z,24.65
2018-01-21T20:15:39.820Z,25.35
2018-01-21T20:18:08.186Z,23.45
2018-01-21T20:20:37.053Z,27.75
2018-01-21T20:23:05.646Z,33.10
2018-01-21T20:25:50.754Z,20.80
2018-01-21T20:28:25.994Z,21.75
2018-01-21T20:31:02.358Z,23.70
2018-01-21T20:39:02.816Z,21.98
2018-01-21T20:41:35.285Z,20.83
2018-01-21T20:44:17.029Z,23.67
2018-01-21T20:46:47.630Z,23.77
2018-01-21T21:00:57.261Z,20.80
2018-01-21T21:03:26.700Z,20.50
2018-01-21T21:05:59.929Z,22.10
2018-01-21T21:08:44.076Z,21.20
2018-01-21T21:16:47.299Z,19.87
2018-01-21T21:19:36.472Z,20.77
2018-01-21T21:22:12.691Z,20.52
2018-01-21T21:42:01.195Z,23.25
2018-01-21T21:44:47.978Z,25.00
2018-01-21T21:53:24.964Z,21.92
2018-01-21T21:55:52.787Z,21.60
2018-01-21T21:58:20.454Z,23.15
2018-01-21T22:00:49.111Z,23.42
2018-01-21T22:03:18.196Z,22.10
2018-01-21T22:05:45.960Z,22.60
2018-01-21T22:08:13.640Z,22.27
2018-01-21T22:10:41.345Z,22.45
2018-01-21T22:13:09.144Z,22.25
2018-01-21T22:15:36.815Z,21.87
2018-01-21T22:18:05.282Z,22.67
2018-01-21T22:20:43.324Z,22.45
2018-01-21T22:23:10.979Z,20.88
2018-01-21T22:25:39.408Z,22.00
2018-01-21T22:28:07.085Z,21.80
2018-01-21T22:30:34.760Z,21.95
2018-01-21T22:33:03.311Z,23.20
2018-01-21T22:35:31.059Z,23.45
2018-01-21T22:37:58.719Z,23.40
2018-01-21T22:40:27.163Z,22.15
2018-01-21T22:43:18.300Z,21.45
2018-01-21T22:45:45.957Z,21.45
2018-01-21T22:48:14.468Z,21.27
2018-01-21T22:50:42.229Z,23.48
2018-01-21T22:53:13.427Z,23.17
2018-01-21T22:55:41.100Z,23.80
2018-01-21T22:58:08.770Z,22.87
2018-01-21T23:00:39.488Z,25.30
2018-01-21T23:03:07.488Z,23.58
2018-01-21T23:05:35.127Z,24.12
2018-01-21T23:08:02.800Z,24.75
2018-01-21T23:10:30.509Z,23.98
2018-01-21T23:12:58.225Z,24.45
2018-01-21T23:15:25.915Z,22.35
2018-01-21T23:17:53.699Z,22.80
2018-01-21T23:20:34.032Z,22.50
2018-01-21T23:23:01.711Z,23.00
2018-01-21T23:25:29.395Z,23.40
2018-01-21T23:27:57.834Z,23.65
2018-01-21T23:30:25.536Z,23.55
2018-01-21T23:32:53.203Z,26.35
2018-01-21T23:35:20.893Z,23.35
2018-01-21T23:37:49.313Z,23.50
2018-01-21T23:40:16.990Z,22.98
2018-01-21T23:42:44.706Z,22.77
2018-01-21T23:45:13.152Z,20.90
2018-01-21T23:47:41.155Z,19.85
2018-01-21T23:50:08.874Z,18.70
2018-01-21T23:52:36.570Z,16.85
2018-01-21T23:55:04.241Z,16.52
2018-01-21T23:57:31.925Z,16.73
